West Galveston, Texas
Current Conditions -  °F | °C
As of 12:52 PM on Sunday 23 Nov 2014 (Local Time) from KGLS Reporting Station
Clear Clear  
Wind Chill: 70°   Ceiling: Unl
Heat Index: 70°   Visibility: 10mi
Dew Point: 62°   Wind: 18mph
Humidity: 76%   Direction: 210°SSW
Pressure: 29.63"   Gusts: NA
Location:  29.2029°N, 94.9576°W
Report Text: KGLS 231852Z 21016KT 10SM CLR 21/17 A2963 RMK AO2 SLP032 T02110167
Loading
Personal Weather Stations






























Interactive Weather Map New forecast layout! Learn more

10-Day Weather Forecast

Advertisements
Track Severe Weather on mobile